KJVL/JVL METAR and TAF weather

Enter ICAO airport designator
Station Type Date Time Source
KJVL METAR 2020/10/20 16:45 UTC NOAA

KJVL 201645Z 11008KT 10SM SCT027 BKN150 07/02 A3025


Station Type Date Time Source
KJVL Decoded METAR 2020/10/20 16:45 UTC NOAA

Janesville / Rock County, WI, United States (KJVL) 42-37N 089-02W
Oct 20, 2020 - 12:45 PM EDT / 2020.10.20 1645 UTC
Wind: from the ESE (110 degrees) at 9 MPH (8 KT):0
Visibility: 10 mile(s):0
Sky conditions: mostly cloudy
Temperature: 44 F (7 C)
Dew Point: 35 F (2 C)
Relative Humidity: 70%
Pressure (altimeter): 30.25 in. Hg (1024 hPa)
ob: KJVL 201645Z 11008KT 10SM SCT027 BKN150 07/02 A3025
cycle: 17

Station Type Date Time Source
KJVL TAF 2020/10/20 18:22 UTC NOAA

TAF KJVL 201722Z 2018/2118 11010KT P6SM SCT025 BKN035
FM202200 12009KT P6SM -DZ SCT015 OVC025
FM210100 12006KT 6SM -RA BR OVC015
FM210300 17003KT 4SM -RA BR OVC008
FM210600 25006KT 6SM BR OVC010
FM211400 27008KT P6SM BKN035

Example: see airport list